sensor_id;sensor_type;location;lat;lon;timestamp;temperature;humidity
262;DHT22;114;48.260;10.988;2022-10-13T00:02:00;8.20;99.90
262;DHT22;114;48.260;10.988;2022-10-13T00:04:26;8.20;99.90
262;DHT22;114;48.260;10.988;2022-10-13T00:06:52;8.20;99.90
262;DHT22;114;48.260;10.988;2022-10-13T00:09:17;8.20;99.90
262;DHT22;114;48.260;10.988;2022-10-13T00:11:45;8.20;99.90
262;DHT22;114;48.260;10.988;2022-10-13T00:14:11;8.10;99.90
262;DHT22;114;48.260;10.988;2022-10-13T00:16:38;8.20;99.90
262;DHT22;114;48.260;10.988;2022-10-13T00:19:04;8.10;99.90
262;DHT22;114;48.260;10.988;2022-10-13T00:21:30;8.20;99.90
262;DHT22;114;48.260;10.988;2022-10-13T00:23:55;8.20;99.90
262;DHT22;114;48.260;10.988;2022-10-13T00:26:23;8.20;99.90
262;DHT22;114;48.260;10.988;2022-10-13T00:28:50;8.20;99.90
262;DHT22;114;48.260;10.988;2022-10-13T00:31:24;8.20;99.90
262;DHT22;114;48.260;10.988;2022-10-13T00:33:51;8.20;99.90
262;DHT22;114;48.260;10.988;2022-10-13T00:36:18;8.20;99.90
262;DHT22;114;48.260;10.988;2022-10-13T00:38:44;8.10;99.90
262;DHT22;114;48.260;10.988;2022-10-13T00:41:10;8.10;99.90
262;DHT22;114;48.260;10.988;2022-10-13T00:43:52;8.10;99.90
262;DHT22;114;48.260;10.988;2022-10-13T00:46:20;8.20;99.90
262;DHT22;114;48.260;10.988;2022-10-13T00:48:48;8.10;99.90
262;DHT22;114;48.260;10.988;2022-10-13T00:51:19;8.20;99.90
262;DHT22;114;48.260;10.988;2022-10-13T00:53:47;8.10;99.90
262;DHT22;114;48.260;10.988;2022-10-13T00:56:16;8.10;99.90
262;DHT22;114;48.260;10.988;2022-10-13T00:58:43;8.00;99.90
262;DHT22;114;48.260;10.988;2022-10-13T01:01:10;8.10;99.90
262;DHT22;114;48.260;10.988;2022-10-13T01:03:36;8.10;99.90
262;DHT22;114;48.260;10.988;2022-10-13T01:06:04;8.00;99.90
262;DHT22;114;48.260;10.988;2022-10-13T01:08:30;8.10;99.90
262;DHT22;114;48.260;10.988;2022-10-13T01:22:44;7.90;99.90
262;DHT22;114;48.260;10.988;2022-10-13T01:25:44;7.80;99.90
262;DHT22;114;48.260;10.988;2022-10-13T01:37:02;8.00;99.90
262;DHT22;114;48.260;10.988;2022-10-13T01:39:34;8.00;99.90
262;DHT22;114;48.260;10.988;2022-10-13T01:42:13;7.90;99.90
262;DHT22;114;48.260;10.988;2022-10-13T01:44:45;7.90;99.90
262;DHT22;114;48.260;10.988;2022-10-13T01:47:15;7.90;99.90
262;DHT22;114;48.260;10.988;2022-10-13T01:49:43;7.90;99.90
262;DHT22;114;48.260;10.988;2022-10-13T01:52:14;7.80;99.90
262;DHT22;114;48.260;10.988;2022-10-13T01:54:41;7.80;99.90
262;DHT22;114;48.260;10.988;2022-10-13T01:57:41;7.80;99.90
262;DHT22;114;48.260;10.988;2022-10-13T02:05:47;7.90;99.90
262;DHT22;114;48.260;10.988;2022-10-13T02:08:23;7.90;99.90
262;DHT22;114;48.260;10.988;2022-10-13T02:13:32;7.90;99.90
262;DHT22;114;48.260;10.988;2022-10-13T02:15:59;7.90;99.90
262;DHT22;114;48.260;10.988;2022-10-13T02:18:30;7.90;99.90
262;DHT22;114;48.260;10.988;2022-10-13T02:20:57;7.90;99.90
262;DHT22;114;48.260;10.988;2022-10-13T02:23:24;7.90;99.90
262;DHT22;114;48.260;10.988;2022-10-13T02:25:52;7.80;99.90
262;DHT22;114;48.260;10.988;2022-10-13T02:28:20;7.80;99.90
262;DHT22;114;48.260;10.988;2022-10-13T02:30:47;7.80;99.90
262;DHT22;114;48.260;10.988;2022-10-13T02:33:13;7.90;99.90
262;DHT22;114;48.260;10.988;2022-10-13T02:35:39;7.90;99.90
262;DHT22;114;48.260;10.988;2022-10-13T02:38:05;7.90;99.90
262;DHT22;114;48.260;10.988;2022-10-13T02:40:31;7.90;99.90
262;DHT22;114;48.260;10.988;2022-10-13T02:42:57;7.90;99.90
262;DHT22;114;48.260;10.988;2022-10-13T02:45:23;8.00;99.90
262;DHT22;114;48.260;10.988;2022-10-13T02:47:49;8.00;99.90
262;DHT22;114;48.260;10.988;2022-10-13T02:50:15;8.00;99.90
262;DHT22;114;48.260;10.988;2022-10-13T02:52:41;8.00;99.90
262;DHT22;114;48.260;10.988;2022-10-13T02:55:07;8.10;99.90
262;DHT22;114;48.260;10.988;2022-10-13T02:57:33;8.10;99.90
262;DHT22;114;48.260;10.988;2022-10-13T02:59:59;8.10;99.90
262;DHT22;114;48.260;10.988;2022-10-13T03:02:26;8.20;99.90
262;DHT22;114;48.260;10.988;2022-10-13T03:04:54;8.30;99.90
262;DHT22;114;48.260;10.988;2022-10-13T03:07:20;8.30;99.90
262;DHT22;114;48.260;10.988;2022-10-13T03:09:46;8.30;99.90
262;DHT22;114;48.260;10.988;2022-10-13T03:12:11;8.30;99.90
262;DHT22;114;48.260;10.988;2022-10-13T03:14:37;8.20;99.90
262;DHT22;114;48.260;10.988;2022-10-13T03:17:04;8.30;99.90
262;DHT22;114;48.260;10.988;2022-10-13T03:19:30;8.30;99.90
262;DHT22;114;48.260;10.988;2022-10-13T03:21:56;8.30;99.90
262;DHT22;114;48.260;10.988;2022-10-13T03:24:22;8.30;99.90
262;DHT22;114;48.260;10.988;2022-10-13T03:26:48;8.30;99.90
262;DHT22;114;48.260;10.988;2022-10-13T03:29:15;8.30;99.90
262;DHT22;114;48.260;10.988;2022-10-13T03:31:41;8.40;99.90
262;DHT22;114;48.260;10.988;2022-10-13T03:34:09;8.40;99.90
262;DHT22;114;48.260;10.988;2022-10-13T03:36:36;8.50;99.90
262;DHT22;114;48.260;10.988;2022-10-13T03:39:02;8.50;99.90
262;DHT22;114;48.260;10.988;2022-10-13T03:41:27;8.50;99.90
262;DHT22;114;48.260;10.988;2022-10-13T03:43:56;8.50;99.90
262;DHT22;114;48.260;10.988;2022-10-13T03:46:25;8.50;99.90
262;DHT22;114;48.260;10.988;2022-10-13T03:48:51;8.50;99.90
262;DHT22;114;48.260;10.988;2022-10-13T03:51:19;8.50;99.90
262;DHT22;114;48.260;10.988;2022-10-13T03:53:47;8.60;99.90
262;DHT22;114;48.260;10.988;2022-10-13T03:56:15;8.60;99.90
262;DHT22;114;48.260;10.988;2022-10-13T03:58:42;8.70;99.90
262;DHT22;114;48.260;10.988;2022-10-13T04:01:09;8.70;99.90
262;DHT22;114;48.260;10.988;2022-10-13T04:03:35;8.80;99.90
262;DHT22;114;48.260;10.988;2022-10-13T04:06:02;8.80;99.90
262;DHT22;114;48.260;10.988;2022-10-13T04:08:30;8.80;99.90
262;DHT22;114;48.260;10.988;2022-10-13T04:11:07;8.90;99.90
262;DHT22;114;48.260;10.988;2022-10-13T04:13:34;8.90;99.90
262;DHT22;114;48.260;10.988;2022-10-13T04:16:07;8.90;99.90
262;DHT22;114;48.260;10.988;2022-10-13T04:18:33;8.90;99.90
262;DHT22;114;48.260;10.988;2022-10-13T04:20:59;8.90;99.90
262;DHT22;114;48.260;10.988;2022-10-13T04:23:26;9.00;99.90
262;DHT22;114;48.260;10.988;2022-10-13T04:25:51;9.00;99.90
262;DHT22;114;48.260;10.988;2022-10-13T04:28:17;9.10;99.90
262;DHT22;114;48.260;10.988;2022-10-13T04:30:43;9.10;99.90
262;DHT22;114;48.260;10.988;2022-10-13T04:33:09;9.10;99.90
262;DHT22;114;48.260;10.988;2022-10-13T04:35:42;9.20;99.90
262;DHT22;114;48.260;10.988;2022-10-13T04:38:07;9.20;99.90
262;DHT22;114;48.260;10.988;2022-10-13T04:40:33;9.20;99.90
262;DHT22;114;48.260;10.988;2022-10-13T04:42:59;9.30;99.90
262;DHT22;114;48.260;10.988;2022-10-13T04:45:25;9.30;99.90
262;DHT22;114;48.260;10.988;2022-10-13T04:47:51;9.30;99.90
262;DHT22;114;48.260;10.988;2022-10-13T04:50:17;9.40;99.90
262;DHT22;114;48.260;10.988;2022-10-13T04:52:43;9.40;99.90
262;DHT22;114;48.260;10.988;2022-10-13T04:55:09;9.40;99.90
262;DHT22;114;48.260;10.988;2022-10-13T04:57:35;9.40;99.90
262;DHT22;114;48.260;10.988;2022-10-13T05:00:00;9.40;99.90
262;DHT22;114;48.260;10.988;2022-10-13T05:02:27;9.50;99.90
262;DHT22;114;48.260;10.988;2022-10-13T05:04:54;9.50;99.90
262;DHT22;114;48.260;10.988;2022-10-13T05:07:19;9.50;99.90
262;DHT22;114;48.260;10.988;2022-10-13T05:09:45;9.50;99.90
262;DHT22;114;48.260;10.988;2022-10-13T05:12:11;9.50;99.90
262;DHT22;114;48.260;10.988;2022-10-13T05:14:36;9.60;99.90
262;DHT22;114;48.260;10.988;2022-10-13T05:17:03;9.60;99.90
262;DHT22;114;48.260;10.988;2022-10-13T05:19:29;9.70;99.90
262;DHT22;114;48.260;10.988;2022-10-13T05:21:55;9.80;99.90
262;DHT22;114;48.260;10.988;2022-10-13T05:24:20;9.70;99.90
262;DHT22;114;48.260;10.988;2022-10-13T05:26:56;9.80;99.90
262;DHT22;114;48.260;10.988;2022-10-13T05:29:21;9.80;99.90
262;DHT22;114;48.260;10.988;2022-10-13T05:31:47;9.70;99.90
262;DHT22;114;48.260;10.988;2022-10-13T05:34:14;9.80;99.90
262;DHT22;114;48.260;10.988;2022-10-13T05:36:40;9.80;99.90
262;DHT22;114;48.260;10.988;2022-10-13T05:39:06;10.10;99.90
262;DHT22;114;48.260;10.988;2022-10-13T05:41:32;10.20;99.90
262;DHT22;114;48.260;10.988;2022-10-13T05:44:05;10.20;99.90
262;DHT22;114;48.260;10.988;2022-10-13T05:46:31;10.40;99.90
262;DHT22;114;48.260;10.988;2022-10-13T05:48:57;10.60;99.90
262;DHT22;114;48.260;10.988;2022-10-13T05:51:31;10.60;99.90
262;DHT22;114;48.260;10.988;2022-10-13T05:54:11;10.50;99.90
262;DHT22;114;48.260;10.988;2022-10-13T05:56:42;10.40;99.90
262;DHT22;114;48.260;10.988;2022-10-13T05:59:12;10.60;99.90
262;DHT22;114;48.260;10.988;2022-10-13T06:01:40;10.80;99.90
262;DHT22;114;48.260;10.988;2022-10-13T06:04:14;10.90;99.90
262;DHT22;114;48.260;10.988;2022-10-13T06:06:41;10.70;99.90
262;DHT22;114;48.260;10.988;2022-10-13T06:09:06;10.70;99.90
262;DHT22;114;48.260;10.988;2022-10-13T06:11:32;10.60;99.90
262;DHT22;114;48.260;10.988;2022-10-13T06:13:58;10.50;99.90
262;DHT22;114;48.260;10.988;2022-10-13T06:16:24;10.60;99.90
262;DHT22;114;48.260;10.988;2022-10-13T06:18:49;10.70;99.90
262;DHT22;114;48.260;10.988;2022-10-13T06:21:15;10.80;99.90
262;DHT22;114;48.260;10.988;2022-10-13T06:23:41;10.90;99.90
262;DHT22;114;48.260;10.988;2022-10-13T06:26:07;10.80;99.90
262;DHT22;114;48.260;10.988;2022-10-13T06:28:33;11.10;99.90
262;DHT22;114;48.260;10.988;2022-10-13T06:31:03;11.10;99.90
262;DHT22;114;48.260;10.988;2022-10-13T06:33:29;11.20;99.90
262;DHT22;114;48.260;10.988;2022-10-13T06:35:55;11.30;99.90
262;DHT22;114;48.260;10.988;2022-10-13T06:38:21;11.20;99.90
262;DHT22;114;48.260;10.988;2022-10-13T06:40:47;11.10;99.90
262;DHT22;114;48.260;10.988;2022-10-13T06:43:12;11.20;99.90
262;DHT22;114;48.260;10.988;2022-10-13T06:45:38;11.30;99.90
262;DHT22;114;48.260;10.988;2022-10-13T06:48:04;11.30;99.70
262;DHT22;114;48.260;10.988;2022-10-13T06:50:30;11.30;99.90
262;DHT22;114;48.260;10.988;2022-10-13T06:52:56;11.30;99.40
262;DHT22;114;48.260;10.988;2022-10-13T06:55:22;11.30;99.60
262;DHT22;114;48.260;10.988;2022-10-13T06:57:48;11.20;98.90
262;DHT22;114;48.260;10.988;2022-10-13T07:00:13;11.10;99.90
262;DHT22;114;48.260;10.988;2022-10-13T07:02:39;11.20;99.90
262;DHT22;114;48.260;10.988;2022-10-13T07:05:06;11.20;99.50
262;DHT22;114;48.260;10.988;2022-10-13T07:07:32;11.30;99.90
262;DHT22;114;48.260;10.988;2022-10-13T07:09:58;11.30;99.80
262;DHT22;114;48.260;10.988;2022-10-13T07:12:24;11.30;99.70
262;DHT22;114;48.260;10.988;2022-10-13T07:14:50;11.40;99.80
262;DHT22;114;48.260;10.988;2022-10-13T07:17:17;11.40;99.50
262;DHT22;114;48.260;10.988;2022-10-13T07:19:43;11.40;99.70
262;DHT22;114;48.260;10.988;2022-10-13T07:22:12;11.50;99.60
262;DHT22;114;48.260;10.988;2022-10-13T07:24:38;11.60;99.70
262;DHT22;114;48.260;10.988;2022-10-13T07:27:03;11.60;99.60
262;DHT22;114;48.260;10.988;2022-10-13T07:29:29;11.60;99.70
262;DHT22;114;48.260;10.988;2022-10-13T07:31:55;11.70;99.60
262;DHT22;114;48.260;10.988;2022-10-13T07:34:22;11.80;99.10
262;DHT22;114;48.260;10.988;2022-10-13T07:36:47;11.90;98.70
262;DHT22;114;48.260;10.988;2022-10-13T07:39:13;11.90;98.10
262;DHT22;114;48.260;10.988;2022-10-13T07:41:39;11.90;98.30
262;DHT22;114;48.260;10.988;2022-10-13T07:44:05;11.90;98.00
262;DHT22;114;48.260;10.988;2022-10-13T07:46:31;11.90;97.90
262;DHT22;114;48.260;10.988;2022-10-13T07:48:57;11.90;97.80
262;DHT22;114;48.260;10.988;2022-10-13T07:51:22;12.00;98.40
262;DHT22;114;48.260;10.988;2022-10-13T07:53:48;12.10;98.10
262;DHT22;114;48.260;10.988;2022-10-13T07:56:15;12.10;97.50
262;DHT22;114;48.260;10.988;2022-10-13T07:58:43;12.20;97.60
262;DHT22;114;48.260;10.988;2022-10-13T08:01:10;12.20;97.30
262;DHT22;114;48.260;10.988;2022-10-13T08:03:35;12.30;97.20
262;DHT22;114;48.260;10.988;2022-10-13T08:06:04;12.40;96.40
262;DHT22;114;48.260;10.988;2022-10-13T08:08:30;12.50;95.90
262;DHT22;114;48.260;10.988;2022-10-13T08:11:04;12.50;94.00
262;DHT22;114;48.260;10.988;2022-10-13T08:13:31;12.50;93.70
262;DHT22;114;48.260;10.988;2022-10-13T08:15:59;12.60;92.50
262;DHT22;114;48.260;10.988;2022-10-13T08:18:25;12.60;92.70
262;DHT22;114;48.260;10.988;2022-10-13T08:20:51;12.70;93.30
262;DHT22;114;48.260;10.988;2022-10-13T08:23:17;12.80;92.80
262;DHT22;114;48.260;10.988;2022-10-13T08:25:43;12.80;92.10
262;DHT22;114;48.260;10.988;2022-10-13T08:28:24;12.90;91.50
262;DHT22;114;48.260;10.988;2022-10-13T08:30:50;12.90;91.80
262;DHT22;114;48.260;10.988;2022-10-13T08:33:18;13.00;92.00
262;DHT22;114;48.260;10.988;2022-10-13T08:35:45;13.00;91.70
262;DHT22;114;48.260;10.988;2022-10-13T08:38:12;13.10;91.90
262;DHT22;114;48.260;10.988;2022-10-13T08:40:39;13.10;91.50
262;DHT22;114;48.260;10.988;2022-10-13T08:43:08;13.20;90.50
262;DHT22;114;48.260;10.988;2022-10-13T08:45:37;13.30;89.50
262;DHT22;114;48.260;10.988;2022-10-13T08:48:05;13.50;87.50
262;DHT22;114;48.260;10.988;2022-10-13T08:50:39;13.80;85.80
262;DHT22;114;48.260;10.988;2022-10-13T08:53:36;13.70;77.60
262;DHT22;114;48.260;10.988;2022-10-13T08:56:20;13.70;75.70
262;DHT22;114;48.260;10.988;2022-10-13T08:58:48;13.80;74.30
262;DHT22;114;48.260;10.988;2022-10-13T09:01:17;13.70;72.50
262;DHT22;114;48.260;10.988;2022-10-13T09:04:07;13.80;72.30
262;DHT22;114;48.260;10.988;2022-10-13T09:06:46;13.90;66.20
262;DHT22;114;48.260;10.988;2022-10-13T09:09:14;13.80;67.70
262;DHT22;114;48.260;10.988;2022-10-13T09:11:44;13.90;61.40
262;DHT22;114;48.260;10.988;2022-10-13T09:14:18;13.80;62.10
262;DHT22;114;48.260;10.988;2022-10-13T09:16:45;14.10;61.90
262;DHT22;114;48.260;10.988;2022-10-13T09:19:31;14.10;56.20
262;DHT22;114;48.260;10.988;2022-10-13T09:22:22;13.90;58.90
262;DHT22;114;48.260;10.988;2022-10-13T09:25:14;14.00;56.10
262;DHT22;114;48.260;10.988;2022-10-13T09:27:55;14.10;49.90
262;DHT22;114;48.260;10.988;2022-10-13T09:32:50;14.40;51.60
262;DHT22;114;48.260;10.988;2022-10-13T09:35:21;14.50;49.00
262;DHT22;114;48.260;10.988;2022-10-13T09:38:13;14.40;48.80
262;DHT22;114;48.260;10.988;2022-10-13T09:40:40;14.30;48.30
262;DHT22;114;48.260;10.988;2022-10-13T09:43:40;14.10;48.80
262;DHT22;114;48.260;10.988;2022-10-13T09:48:55;14.30;46.00
262;DHT22;114;48.260;10.988;2022-10-13T09:51:43;14.20;38.00
262;DHT22;114;48.260;10.988;2022-10-13T09:54:43;14.10;36.30
262;DHT22;114;48.260;10.988;2022-10-13T10:00:12;14.70;30.80
262;DHT22;114;48.260;10.988;2022-10-13T10:05:33;15.50;19.80
262;DHT22;114;48.260;10.988;2022-10-13T10:11:24;15.50;15.10
262;DHT22;114;48.260;10.988;2022-10-13T10:13:51;15.90;14.20
262;DHT22;114;48.260;10.988;2022-10-13T10:16:29;16.40;8.10
262;DHT22;114;48.260;10.988;2022-10-13T10:19:15;16.20;7.10
262;DHT22;114;48.260;10.988;2022-10-13T10:21:48;15.90;10.30
262;DHT22;114;48.260;10.988;2022-10-13T10:24:36;15.90;10.80
262;DHT22;114;48.260;10.988;2022-10-13T10:27:20;16.10;8.60
262;DHT22;114;48.260;10.988;2022-10-13T10:30:19;15.90;8.20
262;DHT22;114;48.260;10.988;2022-10-13T10:33:19;16.00;7.00
262;DHT22;114;48.260;10.988;2022-10-13T10:41:36;16.30;3.70
262;DHT22;114;48.260;10.988;2022-10-13T10:44:20;16.80;3.20
262;DHT22;114;48.260;10.988;2022-10-13T10:46:50;16.80;3.00
262;DHT22;114;48.260;10.988;2022-10-13T10:49:25;16.90;2.70
262;DHT22;114;48.260;10.988;2022-10-13T10:51:53;17.10;2.40
262;DHT22;114;48.260;10.988;2022-10-13T10:57:13;17.60;1.00
262;DHT22;114;48.260;10.988;2022-10-13T11:04:58;17.10;1.00
262;DHT22;114;48.260;10.988;2022-10-13T11:14:47;16.80;1.50
262;DHT22;114;48.260;10.988;2022-10-13T11:17:28;16.70;3.10
262;DHT22;114;48.260;10.988;2022-10-13T11:19:56;17.70;1.00
262;DHT22;114;48.260;10.988;2022-10-13T11:22:26;18.50;1.00
262;DHT22;114;48.260;10.988;2022-10-13T11:24:58;18.80;1.00
262;DHT22;114;48.260;10.988;2022-10-13T11:30:00;18.90;1.00
262;DHT22;114;48.260;10.988;2022-10-13T11:37:51;18.80;1.00
262;DHT22;114;48.260;10.988;2022-10-13T11:56:52;19.20;1.00
262;DHT22;114;48.260;10.988;2022-10-13T11:59:33;19.80;1.00
262;DHT22;114;48.260;10.988;2022-10-13T12:04:35;21.10;1.00
262;DHT22;114;48.260;10.988;2022-10-13T12:07:10;22.10;1.00
262;DHT22;114;48.260;10.988;2022-10-13T12:09:54;22.30;1.00
262;DHT22;114;48.260;10.988;2022-10-13T12:12:21;21.90;1.00
262;DHT22;114;48.260;10.988;2022-10-13T12:14:51;21.40;1.00
262;DHT22;114;48.260;10.988;2022-10-13T12:19:56;19.40;1.00
262;DHT22;114;48.260;10.988;2022-10-13T12:22:23;19.00;1.00
262;DHT22;114;48.260;10.988;2022-10-13T12:24:59;18.70;1.00
262;DHT22;114;48.260;10.988;2022-10-13T12:27:27;18.30;1.00
262;DHT22;114;48.260;10.988;2022-10-13T12:29:53;18.20;1.00
262;DHT22;114;48.260;10.988;2022-10-13T12:32:21;18.40;1.00
262;DHT22;114;48.260;10.988;2022-10-13T12:34:47;18.60;1.00
262;DHT22;114;48.260;10.988;2022-10-13T12:37:33;18.70;1.00
262;DHT22;114;48.260;10.988;2022-10-13T12:40:01;18.60;1.00
262;DHT22;114;48.260;10.988;2022-10-13T12:42:31;18.50;1.00
262;DHT22;114;48.260;10.988;2022-10-13T12:44:59;18.50;1.00
262;DHT22;114;48.260;10.988;2022-10-13T12:53:17;17.80;1.00
262;DHT22;114;48.260;10.988;2022-10-13T12:55:52;17.80;1.00
262;DHT22;114;48.260;10.988;2022-10-13T12:58:34;17.80;1.00
262;DHT22;114;48.260;10.988;2022-10-13T13:01:07;17.80;1.00
262;DHT22;114;48.260;10.988;2022-10-13T13:03:35;18.00;1.00
262;DHT22;114;48.260;10.988;2022-10-13T13:08:41;18.10;1.00
262;DHT22;114;48.260;10.988;2022-10-13T13:11:20;17.90;1.00
262;DHT22;114;48.260;10.988;2022-10-13T13:13:47;17.60;1.00
262;DHT22;114;48.260;10.988;2022-10-13T13:16:18;17.40;1.00
262;DHT22;114;48.260;10.988;2022-10-13T13:18:48;17.30;1.00
262;DHT22;114;48.260;10.988;2022-10-13T13:21:16;17.20;1.00
262;DHT22;114;48.260;10.988;2022-10-13T13:23:44;17.20;1.00
262;DHT22;114;48.260;10.988;2022-10-13T13:26:19;17.10;1.00
262;DHT22;114;48.260;10.988;2022-10-13T13:28:53;17.00;1.00
262;DHT22;114;48.260;10.988;2022-10-13T13:31:26;17.10;1.00
262;DHT22;114;48.260;10.988;2022-10-13T13:33:52;17.30;1.00
262;DHT22;114;48.260;10.988;2022-10-13T13:36:23;17.20;1.00
262;DHT22;114;48.260;10.988;2022-10-13T13:38:50;17.20;1.00
262;DHT22;114;48.260;10.988;2022-10-13T13:41:16;17.30;1.00
262;DHT22;114;48.260;10.988;2022-10-13T13:43:44;17.30;1.00
262;DHT22;114;48.260;10.988;2022-10-13T13:46:21;17.20;1.00
262;DHT22;114;48.260;10.988;2022-10-13T13:48:47;17.30;1.00
262;DHT22;114;48.260;10.988;2022-10-13T13:51:14;17.30;6.70
262;DHT22;114;48.260;10.988;2022-10-13T13:53:39;17.40;7.20
262;DHT22;114;48.260;10.988;2022-10-13T13:56:13;17.50;1.00
262;DHT22;114;48.260;10.988;2022-10-13T13:58:39;17.40;1.00
262;DHT22;114;48.260;10.988;2022-10-13T14:01:05;17.30;2.30
262;DHT22;114;48.260;10.988;2022-10-13T14:03:30;17.20;1.30
262;DHT22;114;48.260;10.988;2022-10-13T14:05:56;17.20;1.00
262;DHT22;114;48.260;10.988;2022-10-13T14:08:22;17.10;3.50
262;DHT22;114;48.260;10.988;2022-10-13T14:10:48;17.20;1.00
262;DHT22;114;48.260;10.988;2022-10-13T14:13:13;17.20;3.30
262;DHT22;114;48.260;10.988;2022-10-13T14:15:39;17.40;4.20
262;DHT22;114;48.260;10.988;2022-10-13T14:18:05;17.60;4.20
262;DHT22;114;48.260;10.988;2022-10-13T14:20:32;17.40;1.80
262;DHT22;114;48.260;10.988;2022-10-13T14:22:58;17.20;5.80
262;DHT22;114;48.260;10.988;2022-10-13T14:25:25;17.40;1.00
262;DHT22;114;48.260;10.988;2022-10-13T14:27:52;17.40;1.00
262;DHT22;114;48.260;10.988;2022-10-13T14:30:17;17.30;2.10
262;DHT22;114;48.260;10.988;2022-10-13T14:32:43;17.20;2.90
262;DHT22;114;48.260;10.988;2022-10-13T14:35:09;17.10;2.40
262;DHT22;114;48.260;10.988;2022-10-13T14:37:35;17.10;3.90
262;DHT22;114;48.260;10.988;2022-10-13T14:40:01;17.20;5.00
262;DHT22;114;48.260;10.988;2022-10-13T14:42:27;17.30;2.70
262;DHT22;114;48.260;10.988;2022-10-13T14:44:52;17.10;4.40
262;DHT22;114;48.260;10.988;2022-10-13T14:47:18;17.10;3.40
262;DHT22;114;48.260;10.988;2022-10-13T14:49:44;17.10;3.90
262;DHT22;114;48.260;10.988;2022-10-13T14:52:10;16.90;4.60
262;DHT22;114;48.260;10.988;2022-10-13T14:54:35;16.80;6.40
262;DHT22;114;48.260;10.988;2022-10-13T14:57:02;16.80;7.50
262;DHT22;114;48.260;10.988;2022-10-13T14:59:31;16.60;10.20
262;DHT22;114;48.260;10.988;2022-10-13T15:01:57;16.70;11.20
262;DHT22;114;48.260;10.988;2022-10-13T15:04:24;16.60;10.50
262;DHT22;114;48.260;10.988;2022-10-13T15:06:51;16.50;11.60
262;DHT22;114;48.260;10.988;2022-10-13T15:09:18;16.50;13.00
262;DHT22;114;48.260;10.988;2022-10-13T15:11:44;16.50;13.20
262;DHT22;114;48.260;10.988;2022-10-13T15:14:10;16.40;13.10
262;DHT22;114;48.260;10.988;2022-10-13T15:16:38;16.30;13.60
262;DHT22;114;48.260;10.988;2022-10-13T15:19:04;16.30;14.40
262;DHT22;114;48.260;10.988;2022-10-13T15:21:30;16.30;15.20
262;DHT22;114;48.260;10.988;2022-10-13T15:23:56;16.20;15.60
262;DHT22;114;48.260;10.988;2022-10-13T15:26:22;16.10;16.40
262;DHT22;114;48.260;10.988;2022-10-13T15:28:50;16.10;17.90
262;DHT22;114;48.260;10.988;2022-10-13T15:31:17;16.10;17.90
262;DHT22;114;48.260;10.988;2022-10-13T15:33:48;16.00;18.70
262;DHT22;114;48.260;10.988;2022-10-13T15:36:19;16.00;19.70
262;DHT22;114;48.260;10.988;2022-10-13T15:38:46;16.10;19.60
262;DHT22;114;48.260;10.988;2022-10-13T15:41:13;16.00;20.20
262;DHT22;114;48.260;10.988;2022-10-13T15:43:38;16.00;20.50
262;DHT22;114;48.260;10.988;2022-10-13T15:46:12;15.90;22.20
262;DHT22;114;48.260;10.988;2022-10-13T15:48:49;15.80;22.20
262;DHT22;114;48.260;10.988;2022-10-13T15:51:17;15.80;23.50
262;DHT22;114;48.260;10.988;2022-10-13T15:53:45;15.80;23.20
262;DHT22;114;48.260;10.988;2022-10-13T15:56:17;15.80;24.60
262;DHT22;114;48.260;10.988;2022-10-13T15:58:43;15.80;25.70
262;DHT22;114;48.260;10.988;2022-10-13T16:01:10;15.70;25.20
262;DHT22;114;48.260;10.988;2022-10-13T16:03:37;15.70;25.80
262;DHT22;114;48.260;10.988;2022-10-13T16:06:04;15.60;27.40
262;DHT22;114;48.260;10.988;2022-10-13T16:08:34;15.60;27.80
262;DHT22;114;48.260;10.988;2022-10-13T16:11:00;15.50;30.70
262;DHT22;114;48.260;10.988;2022-10-13T16:13:26;15.40;32.90
262;DHT22;114;48.260;10.988;2022-10-13T16:15:59;15.40;33.50
262;DHT22;114;48.260;10.988;2022-10-13T16:18:30;15.30;35.20
262;DHT22;114;48.260;10.988;2022-10-13T16:20:57;15.20;39.30
262;DHT22;114;48.260;10.988;2022-10-13T16:23:23;15.10;40.00
262;DHT22;114;48.260;10.988;2022-10-13T16:25:51;15.00;44.10
262;DHT22;114;48.260;10.988;2022-10-13T16:28:17;15.00;44.60
262;DHT22;114;48.260;10.988;2022-10-13T16:30:43;14.90;45.80
262;DHT22;114;48.260;10.988;2022-10-13T16:33:08;14.80;48.50
262;DHT22;114;48.260;10.988;2022-10-13T16:35:36;14.70;50.60
262;DHT22;114;48.260;10.988;2022-10-13T16:38:06;14.60;54.30
262;DHT22;114;48.260;10.988;2022-10-13T16:40:31;14.50;56.30
262;DHT22;114;48.260;10.988;2022-10-13T16:42:57;14.50;59.00
262;DHT22;114;48.260;10.988;2022-10-13T16:45:23;14.40;59.70
262;DHT22;114;48.260;10.988;2022-10-13T16:47:52;14.30;60.70
262;DHT22;114;48.260;10.988;2022-10-13T16:50:17;14.20;60.80
262;DHT22;114;48.260;10.988;2022-10-13T16:52:43;14.20;61.80
262;DHT22;114;48.260;10.988;2022-10-13T16:55:10;14.10;64.10
262;DHT22;114;48.260;10.988;2022-10-13T16:57:35;14.00;66.10
262;DHT22;114;48.260;10.988;2022-10-13T17:00:01;13.90;68.60
262;DHT22;114;48.260;10.988;2022-10-13T17:02:27;13.90;70.20
262;DHT22;114;48.260;10.988;2022-10-13T17:04:55;13.80;71.20
262;DHT22;114;48.260;10.988;2022-10-13T17:07:21;13.70;72.00
262;DHT22;114;48.260;10.988;2022-10-13T17:09:48;13.70;74.20
262;DHT22;114;48.260;10.988;2022-10-13T17:12:14;13.60;76.00
262;DHT22;114;48.260;10.988;2022-10-13T17:14:40;13.60;76.50
262;DHT22;114;48.260;10.988;2022-10-13T17:17:13;13.60;77.70
262;DHT22;114;48.260;10.988;2022-10-13T17:19:42;13.50;78.60
262;DHT22;114;48.260;10.988;2022-10-13T17:22:09;13.50;79.60
262;DHT22;114;48.260;10.988;2022-10-13T17:24:37;13.40;81.60
262;DHT22;114;48.260;10.988;2022-10-13T17:27:04;13.40;82.50
262;DHT22;114;48.260;10.988;2022-10-13T17:29:29;13.30;84.20
262;DHT22;114;48.260;10.988;2022-10-13T17:31:55;13.30;86.10
262;DHT22;114;48.260;10.988;2022-10-13T17:34:21;13.30;85.40
262;DHT22;114;48.260;10.988;2022-10-13T17:36:46;13.30;85.40
262;DHT22;114;48.260;10.988;2022-10-13T17:39:12;13.20;86.10
262;DHT22;114;48.260;10.988;2022-10-13T17:41:38;13.10;86.20
262;DHT22;114;48.260;10.988;2022-10-13T17:44:05;13.00;87.20
262;DHT22;114;48.260;10.988;2022-10-13T17:46:32;12.90;88.10
262;DHT22;114;48.260;10.988;2022-10-13T17:49:00;12.80;90.00
262;DHT22;114;48.260;10.988;2022-10-13T17:51:26;12.70;90.50
262;DHT22;114;48.260;10.988;2022-10-13T17:53:53;12.60;91.30
262;DHT22;114;48.260;10.988;2022-10-13T17:56:23;12.50;92.00
262;DHT22;114;48.260;10.988;2022-10-13T17:58:51;12.50;92.90
262;DHT22;114;48.260;10.988;2022-10-13T18:01:21;12.50;93.60
262;DHT22;114;48.260;10.988;2022-10-13T18:03:52;12.40;94.00
262;DHT22;114;48.260;10.988;2022-10-13T18:06:20;12.40;94.50
262;DHT22;114;48.260;10.988;2022-10-13T18:08:46;12.40;95.20
262;DHT22;114;48.260;10.988;2022-10-13T18:11:15;12.30;95.60
262;DHT22;114;48.260;10.988;2022-10-13T18:13:43;12.30;95.90
262;DHT22;114;48.260;10.988;2022-10-13T18:16:13;12.20;96.30
262;DHT22;114;48.260;10.988;2022-10-13T18:18:41;12.10;96.70
262;DHT22;114;48.260;10.988;2022-10-13T18:21:12;12.10;97.00